Terminal Aerodrome Forecast
Issued by NWS Wichita, KS

Home | Current Version | Previous Version | Text Only | Print | Product List | Glossary On
Versions: 1 2 3 4 5 6 7 8 9 10 11 12 13 14 15 16 17 18 19 20 21
000
FTUS43 KICT 271725
TAFICT
TAF
KICT 271725Z 2718/2818 13008KT P6SM SCT035 BKN120
     FM280600 VRB03KT P6SM VCTS SCT080CB BKN120
     FM281200 VRB03KT P6SM BKN200=

USA.gov is the U.S. government's official web portal to all federal, state and local government web resources and services.